This is the latest recevied weather packets stored in our database for station/object N0OQA. If no packets are shown the sender has not sent any weather packets the latest 10 day(s).
| Time | Temp. | Humidity | Pressure | Rain* | Wind** | Luminosity | Snow |
|---|---|---|---|---|---|---|---|
| 1788213234 | 30.56° C | 37% | 1013.9 hPa | 0 mm | - | - | - |
| 1788211432 | 31.11° C | 35% | 1013.7 hPa | 0 mm | - | - | - |
| 1788211132 | 31.11° C | 35% | 1013.6 hPa | 0 mm | - | - | - |
| 1788210831 | 30.56° C | 34% | 1013.6 hPa | 0 mm | - | - | - |
| 1788210531 | 30.56° C | 34% | 1013.6 hPa | 0 mm | - | - | - |
| 1788210231 | 30.56° C | 33% | 1013.7 hPa | 0 mm | - | - | - |
| 1788209930 | 30° C | 34% | 1013.3 hPa | 0 mm | - | - | - |
| 1788209030 | 30° C | 41% | 1013.8 hPa | 0 mm | - | - | - |
| 1788208129 | 30° C | 40% | 1013.7 hPa | 0 mm | - | - | - |
| 1788207828 | 30° C | 41% | 1013.8 hPa | 0 mm | - | - | - |
| 1788207528 | 30° C | 40% | 1013.8 hPa | 0 mm | - | - | - |
| 1788207228 | 30° C | 40% | 1013.8 hPa | 0 mm | - | - | - |
| 1788206928 | 30° C | 40% | 1013.7 hPa | 0 mm | - | - | - |
| 1788206026 | 30° C | 39% | 1013.4 hPa | 0 mm | - | - | - |
| 1788205726 | 30° C | 39% | 1013.4 hPa | 0 mm | - | - | - |
| 1788205426 | 30° C | 39% | 1013.3 hPa | 0 mm | - | - | - |
| 1788204525 | 30.56° C | 40% | 1013.6 hPa | 0 mm | - | - | - |
| 1788203923 | 30° C | 40% | 1013.6 hPa | 0 mm | - | - | - |
| 1788203623 | 30° C | 42% | 1013.6 hPa | 0 mm | - | - | - |
| 1788203321 | 30° C | 41% | 1013.6 hPa | 0 mm | - | - | - |
| 1788203021 | 29.44° C | 46% | 1013.6 hPa | 0 mm | - | - | - |
| 1788202721 | 29.44° C | 46% | 1013.6 hPa | 0 mm | - | - | - |
| 1788201516 | 29.44° C | 46% | 1013.3 hPa | 0 mm | - | - | - |
| 1788193536 | 25° C | 82% | 1013.8 hPa | 0 mm | - | - | - |
| 1788192635 | 24.44° C | 87% | 1013.7 hPa | 0 mm | - | - | - |
* Rain since midnight (hover to see other rain measurements)
** Current wind speed in m/s (hover to see current wind gust speed)